Time;durP1;ratioP1;P1;durP2;ratioP2;P2;SDS_P1;SDS_P2;PMS_P1;PMS_P2;Temp;Humidity;BMP_temperature;BMP_pressure;BME280_temperature;BME280_humidity;BME280_pressure;Samples;Min_cycle;Max_cycle;Signal;HPM_P1;HPM_P2
2023/11/13 00:02:00;;;;;;;0.30;0.30;;;;;;;;;;4951585;28;20684;-61
2023/11/13 00:04:27;;;;;;;1.47;0.53;;;;;;;;;;4943855;28;20291;-61
2023/11/13 00:06:54;;;;;;;0.40;0.40;;;;;;;;;;4950490;28;20246;-62
2023/11/13 00:09:22;;;;;;;0.20;0.20;;;;;;;;;;4953079;28;20206;-61
2023/11/13 00:11:49;;;;;;;1.00;0.30;;;;;;;;;;4947645;28;20208;-63
2023/11/13 00:14:18;;;;;;;0.30;0.30;;;;;;;;;;4950271;28;20234;-61
2023/11/13 00:16:45;;;;;;;0.30;0.30;;;;;;;;;;4951777;28;20211;-61
2023/11/13 00:19:12;;;;;;;0.40;0.40;;;;;;;;;;4952618;28;20218;-62
2023/11/13 00:21:40;;;;;;;1.37;0.50;;;;;;;;;;4953972;28;20242;-61
2023/11/13 00:24:07;;;;;;;0.53;0.53;;;;;;;;;;4953168;28;20226;-61
2023/11/13 00:26:35;;;;;;;0.57;0.40;;;;;;;;;;4952439;28;20302;-61
2023/11/13 00:29:02;;;;;;;1.57;0.30;;;;;;;;;;4953237;28;20230;-61
2023/11/13 00:31:34;;;;;;;0.93;0.50;;;;;;;;;;4945912;28;20931;-61
2023/11/13 00:34:01;;;;;;;0.30;0.30;;;;;;;;;;4950773;28;20727;-62
2023/11/13 00:36:33;;;;;;;1.40;0.40;;;;;;;;;;4948750;28;20206;-61
2023/11/13 00:39:01;;;;;;;0.40;0.20;;;;;;;;;;4954878;28;20231;-62
2023/11/13 00:41:33;;;;;;;0.27;0.27;;;;;;;;;;4958167;28;20201;-61
2023/11/13 00:44:01;;;;;;;0.30;0.30;;;;;;;;;;4965834;28;20292;-61
2023/11/13 00:46:28;;;;;;;1.40;1.13;;;;;;;;;;4946711;28;20214;-61
2023/11/13 00:48:57;;;;;;;0.40;0.40;;;;;;;;;;4949632;28;20850;-61
2023/11/13 00:51:24;;;;;;;1.40;0.20;;;;;;;;;;4946623;28;20287;-62
2023/11/13 00:53:51;;;;;;;0.57;0.30;;;;;;;;;;4950311;28;20790;-61
2023/11/13 00:56:18;;;;;;;0.70;0.70;;;;;;;;;;4949700;28;20230;-61
2023/11/13 00:58:46;;;;;;;0.30;0.30;;;;;;;;;;4949018;28;20235;-62
2023/11/13 01:01:14;;;;;;;0.20;0.20;;;;;;;;;;4950233;28;20211;-61
2023/11/13 01:03:42;;;;;;;0.40;0.30;;;;;;;;;;4956644;28;20702;-62
2023/11/13 01:06:15;;;;;;;0.70;0.20;;;;;;;;;;4956444;29;20226;-61
2023/11/13 01:08:42;;;;;;;0.20;0.20;;;;;;;;;;4955843;29;20277;-61
2023/11/13 01:11:10;;;;;;;0.20;0.20;;;;;;;;;;4958959;28;20293;-61
2023/11/13 01:13:37;;;;;;;1.60;0.10;;;;;;;;;;4961793;28;20214;-61
2023/11/13 01:16:05;;;;;;;1.70;0.20;;;;;;;;;;4956513;29;20325;-61
2023/11/13 01:18:32;;;;;;;0.10;0.10;;;;;;;;;;4955617;28;20207;-61
2023/11/13 01:21:00;;;;;;;0.30;0.17;;;;;;;;;;4956733;29;20207;-61
2023/11/13 01:23:29;;;;;;;0.40;0.10;;;;;;;;;;4951926;28;20201;-61
2023/11/13 01:25:56;;;;;;;0.10;0.10;;;;;;;;;;4962138;28;20241;-61
2023/11/13 01:28:23;;;;;;;0.30;0.30;;;;;;;;;;4945204;28;20226;-61
2023/11/13 01:30:51;;;;;;;1.60;0.30;;;;;;;;;;4964199;28;20207;-61
2023/11/13 01:33:19;;;;;;;0.27;0.27;;;;;;;;;;4974347;28;20636;-61
2023/11/13 01:35:46;;;;;;;0.90;0.20;;;;;;;;;;4958170;28;20241;-61
2023/11/13 01:38:13;;;;;;;2.23;0.50;;;7.60;99.90;;;;;;4962364;28;20265;-61
2023/11/13 01:40:42;;;;;;;0.80;0.20;;;;;;;;;;4960460;28;20279;-61
2023/11/13 01:43:16;;;;;;;0.50;0.20;;;;;;;;;;4956631;28;20251;-61
2023/11/13 01:45:44;;;;;;;0.20;0.20;;;;;;;;;;4959418;28;20231;-62
2023/11/13 01:48:11;;;;;;;0.27;0.27;;;;;;;;;;4957801;28;20302;-61
2023/11/13 01:50:38;;;;;;;0.17;0.17;;;;;;;;;;4961424;28;20218;-61
2023/11/13 01:53:06;;;;;;;0.20;0.10;;;;;;;;;;4945421;28;20618;-61
2023/11/13 01:55:33;;;;;;;0.53;0.20;;;;;;;;;;4949643;28;20654;-62
2023/11/13 01:58:02;;;;;;;1.90;0.13;;;;;;;;;;4955891;28;20203;-61
2023/11/13 02:00:29;;;;;;;0.87;0.30;;;;;;;;;;4962679;28;20285;-61
2023/11/13 02:02:57;;;;;;;0.20;0.20;;;;;;;;;;4971323;28;20206;-61
2023/11/13 02:05:25;;;;;;;0.10;0.10;;;;;;;;;;4963132;28;20227;-61
2023/11/13 02:07:52;;;;;;;0.20;0.20;;;;;;;;;;4955985;29;20632;-61
2023/11/13 02:10:20;;;;;;;0.53;0.10;;;7.80;99.90;;;;;;4952959;28;20202;-61
2023/11/13 02:12:50;;;;;;;0.97;0.20;;;;;;;;;;4961375;28;20262;-61
2023/11/13 02:15:19;;;;;;;1.93;0.30;;;;;;;;;;4974773;28;20238;-61
2023/11/13 02:17:58;;;;;;;0.20;0.10;;;;;;;;;;4974181;28;20204;-61
2023/11/13 02:20:26;;;;;;;0.60;0.20;;;;;;;;;;4975351;28;20300;-61
2023/11/13 02:22:53;;;;;;;0.20;0.13;;;;;;;;;;4958619;28;20242;-61
2023/11/13 02:25:23;;;;;;;0.10;0.10;;;;;;;;;;4956272;28;20294;-61
2023/11/13 02:27:52;;;;;;;0.27;0.20;;;;;;;;;;4955959;29;20271;-62
2023/11/13 02:30:20;;;;;;;1.20;0.30;;;;;;;;;;4955625;29;20238;-62
2023/11/13 02:32:47;;;;;;;0.10;0.10;;;8.00;99.90;;;;;;4955802;29;20707;-61
2023/11/13 02:35:14;;;;;;;0.70;0.10;;;;;;;;;;4962057;28;20325;-61
2023/11/13 02:37:42;;;;;;;0.10;0.10;;;;;;;;;;4968797;28;20289;-61
2023/11/13 02:40:11;;;;;;;0.00;0.00;;;8.00;99.90;;;;;;4956152;28;20286;-61
2023/11/13 02:42:40;;;;;;;0.40;0.20;;;;;;;;;;4954331;28;20208;-62
2023/11/13 02:45:07;;;;;;;0.50;0.10;;;;;;;;;;4956428;28;20225;-61
2023/11/13 02:47:35;;;;;;;0.20;0.17;;;;;;;;;;4958233;28;20234;-62
2023/11/13 02:50:03;;;;;;;0.10;0.10;;;7.80;99.90;;;;;;4966626;28;20282;-61
2023/11/13 02:52:30;;;;;;;0.30;0.30;;;7.80;99.90;;;;;;4974556;28;20679;-61
2023/11/13 02:54:56;;;;;;;0.23;0.10;;;7.80;99.90;;;;;;4974002;28;20699;-62
2023/11/13 02:57:23;;;;;;;0.50;0.20;;;7.70;99.90;;;;;;4963381;28;20215;-62
2023/11/13 02:59:52;;;;;;;1.10;0.27;;;7.70;99.90;;;;;;4958744;28;20266;-62
2023/11/13 03:02:19;;;;;;;0.10;0.10;;;7.60;99.90;;;;;;4963117;28;20230;-61
2023/11/13 03:04:46;;;;;;;0.63;0.10;;;7.60;99.90;;;;;;4953688;28;20310;-61
2023/11/13 03:07:12;;;;;;;0.13;0.13;;;7.60;99.90;;;;;;4955048;28;20231;-61
2023/11/13 03:09:40;;;;;;;0.73;0.10;;;7.80;99.90;;;;;;4953812;28;20694;-61
2023/11/13 03:12:07;;;;;;;0.20;0.10;;;7.80;99.90;;;;;;4961469;28;20199;-62
2023/11/13 03:14:34;;;;;;;0.40;0.10;;;7.80;99.90;;;;;;4962377;28;20363;-61
2023/11/13 03:17:03;;;;;;;0.20;0.20;;;7.80;99.90;;;;;;4954992;28;20207;-62
2023/11/13 03:19:30;;;;;;;0.10;0.10;;;7.90;99.90;;;;;;4954901;28;20267;-62
2023/11/13 03:21:56;;;;;;;1.30;0.20;;;7.80;99.90;;;;;;4951965;28;20238;-62
2023/11/13 03:24:23;;;;;;;1.20;0.20;;;7.80;99.90;;;;;;4962453;28;20273;-61
2023/11/13 03:26:50;;;;;;;1.00;0.30;;;7.80;99.90;;;;;;4957534;28;20258;-62
2023/11/13 03:29:16;;;;;;;0.27;0.27;;;7.80;99.90;;;;;;4964222;28;20239;-62
2023/11/13 03:31:43;;;;;;;0.20;0.10;;;7.80;99.90;;;;;;4974021;28;20238;-61
2023/11/13 03:34:11;;;;;;;0.33;0.20;;;7.80;99.90;;;;;;4973807;28;20313;-62
2023/11/13 03:36:38;;;;;;;0.10;0.10;;;7.90;99.90;;;;;;4964957;28;20262;-61
2023/11/13 03:39:05;;;;;;;0.83;0.10;;;7.90;99.90;;;;;;4962379;28;20239;-62
2023/11/13 03:41:32;;;;;;;0.80;0.30;;;7.90;99.90;;;;;;4962621;28;20238;-62
2023/11/13 03:44:00;;;;;;;0.10;0.10;;;7.90;99.90;;;;;;4967349;28;20756;-62
2023/11/13 03:46:27;;;;;;;0.20;0.10;;;7.90;99.90;;;;;;4973229;28;20318;-62
2023/11/13 03:48:54;;;;;;;0.53;0.10;;;7.90;99.90;;;;;;4966556;28;20202;-62
2023/11/13 03:51:23;;;;;;;0.23;0.10;;;7.80;99.90;;;;;;4964288;28;20208;-61
2023/11/13 03:53:50;;;;;;;0.10;0.10;;;7.70;99.90;;;;;;4973608;28;20206;-61
2023/11/13 03:56:18;;;;;;;0.30;0.30;;;7.80;99.90;;;;;;4972033;28;20253;-61
2023/11/13 03:58:45;;;;;;;0.80;0.10;;;7.80;99.90;;;;;;4960961;28;20663;-62
2023/11/13 04:01:13;;;;;;;1.03;0.20;;;7.80;99.90;;;;;;4955810;28;20587;-62
2023/11/13 04:03:40;;;;;;;1.17;0.30;;;7.90;99.90;;;;;;4962418;28;20235;-61
2023/11/13 04:06:07;;;;;;;0.67;0.20;;;8.00;99.90;;;;;;4953517;28;20249;-61
2023/11/13 04:08:35;;;;;;;0.73;0.17;;;8.00;99.90;;;;;;4953940;28;20293;-62
2023/11/13 04:11:04;;;;;;;1.90;0.20;;;8.00;99.90;;;;;;4952957;28;20318;-62
2023/11/13 04:13:31;;;;;;;0.30;0.10;;;8.10;99.90;;;;;;4952848;28;20197;-61
2023/11/13 04:16:00;;;;;;;0.10;0.10;;;8.10;99.90;;;;;;4961234;28;20233;-62
2023/11/13 04:18:28;;;;;;;0.83;0.30;;;8.10;99.90;;;;;;4955403;28;20215;-61
2023/11/13 04:20:56;;;;;;;0.00;0.00;;;8.20;99.90;;;;;;4953966;29;20305;-62
2023/11/13 04:23:23;;;;;;;0.60;0.10;;;8.30;99.90;;;;;;4953110;28;20204;-62
2023/11/13 04:25:52;;;;;;;1.17;0.10;;;8.30;99.90;;;;;;4953254;28;20302;-61
2023/11/13 04:28:19;;;;;;;0.17;0.13;;;8.30;99.90;;;;;;4950360;28;20283;-62
2023/11/13 04:30:46;;;;;;;1.20;0.10;;;8.30;99.90;;;;;;4953019;28;20204;-62
2023/11/13 04:33:13;;;;;;;0.10;0.10;;;8.30;99.90;;;;;;4961473;28;20684;-62
2023/11/13 04:35:40;;;;;;;0.13;0.13;;;8.30;99.90;;;;;;4951690;28;20269;-62
2023/11/13 04:38:07;;;;;;;0.87;0.87;;;8.30;99.90;;;;;;4953268;29;20700;-61
2023/11/13 04:40:34;;;;;;;0.87;0.20;;;8.30;99.90;;;;;;4960162;28;20238;-61
2023/11/13 04:43:02;;;;;;;0.73;0.10;;;8.30;99.90;;;;;;4958588;28;20675;-61
2023/11/13 04:45:29;;;;;;;0.10;0.10;;;8.20;99.90;;;;;;4955183;28;20303;-61
2023/11/13 04:47:57;;;;;;;1.70;0.57;;;8.20;99.90;;;;;;4957879;28;20234;-62
2023/11/13 04:50:24;;;;;;;0.20;0.20;;;8.20;99.90;;;;;;4953721;28;20610;-61
2023/11/13 04:52:51;;;;;;;0.17;0.10;;;8.20;99.90;;;;;;4958368;28;20200;-62
2023/11/13 04:55:17;;;;;;;1.30;0.20;;;8.10;99.90;;;;;;4962411;28;20253;-62
2023/11/13 04:57:45;;;;;;;2.17;0.10;;;8.10;99.90;;;;;;4952391;28;20289;-61
2023/11/13 05:00:14;;;;;;;0.20;0.20;;;8.20;99.90;;;;;;4962093;28;20243;-62
2023/11/13 05:02:42;;;;;;;0.10;0.10;;;8.20;99.90;;;;;;4958611;28;20239;-62
2023/11/13 05:05:10;;;;;;;0.40;0.20;;;8.10;99.90;;;;;;4952154;28;20230;-62
2023/11/13 05:07:39;;;;;;;1.20;0.30;;;8.10;99.90;;;;;;4964601;28;20196;-61
2023/11/13 05:10:07;;;;;;;0.10;0.10;;;8.10;99.90;;;;;;4972605;28;20702;-61
2023/11/13 05:12:33;;;;;;;0.20;0.20;;;8.10;99.90;;;;;;4972460;28;20238;-61
2023/11/13 05:15:00;;;;;;;0.17;0.17;;;8.10;99.90;;;;;;4963082;28;20234;-61
2023/11/13 05:17:30;;;;;;;0.10;0.10;;;8.10;99.90;;;;;;4959944;28;20263;-61
2023/11/13 05:19:59;;;;;;;0.20;0.20;;;8.10;99.90;;;;;;4953777;28;20199;-61
2023/11/13 05:22:26;;;;;;;0.20;0.20;;;8.10;99.90;;;;;;4959565;28;20263;-61
2023/11/13 05:24:53;;;;;;;0.13;0.13;;;8.00;99.90;;;;;;4952702;28;20267;-61
2023/11/13 05:27:20;;;;;;;0.50;0.17;;;8.00;99.90;;;;;;4953073;28;20692;-61
2023/11/13 05:29:46;;;;;;;0.33;0.20;;;8.00;99.90;;;;;;4955588;28;20234;-61
2023/11/13 05:32:13;;;;;;;0.10;0.10;;;8.00;99.90;;;;;;4953929;28;20291;-61
2023/11/13 05:34:42;;;;;;;0.30;0.30;;;8.00;99.90;;;;;;4959256;28;20284;-61
2023/11/13 05:37:09;;;;;;;0.57;0.30;;;8.00;99.90;;;;;;4952978;28;20286;-61
2023/11/13 05:39:36;;;;;;;1.10;0.40;;;7.90;99.90;;;;;;4954047;28;20466;-60
2023/11/13 05:42:03;;;;;;;0.30;0.30;;;8.00;99.90;;;;;;4962973;28;20262;-61
2023/11/13 05:44:30;;;;;;;0.43;0.30;;;7.90;99.90;;;;;;4957539;28;20906;-59
2023/11/13 05:46:57;;;;;;;0.20;0.20;;;7.70;99.90;;;;;;4959755;28;20441;-59
2023/11/13 05:49:24;;;;;;;0.63;0.20;;;7.90;99.90;;;;;;4956830;28;20687;-60
2023/11/13 05:51:52;;;;;;;0.20;0.20;;;7.90;99.90;;;;;;4949420;28;20227;-59
2023/11/13 05:54:19;;;;;;;0.10;0.10;;;8.00;99.90;;;;;;4954108;28;20255;-59
2023/11/13 05:56:46;;;;;;;0.40;0.20;;;7.90;99.90;;;;;;4951313;28;20230;-60
2023/11/13 05:59:14;;;;;;;0.20;0.20;;;7.90;99.90;;;;;;4955889;28;20206;-59
2023/11/13 06:01:41;;;;;;;0.63;0.63;;;7.90;99.90;;;;;;4954148;28;20227;-59
2023/11/13 06:04:09;;;;;;;0.10;0.10;;;7.90;99.90;;;;;;4955694;28;20234;-59
2023/11/13 06:06:37;;;;;;;1.27;0.20;;;7.80;99.90;;;;;;4955120;28;20199;-59
2023/11/13 06:09:05;;;;;;;0.40;0.40;;;7.90;99.90;;;;;;4955800;28;20584;-59
2023/11/13 06:11:33;;;;;;;0.93;0.30;;;7.90;99.90;;;;;;4955674;28;20197;-59
2023/11/13 06:14:00;;;;;;;0.70;0.40;;;7.90;99.90;;;;;;4955751;28;20642;-59
2023/11/13 06:16:27;;;;;;;0.10;0.10;;;7.90;99.90;;;;;;4955246;28;20232;-59
2023/11/13 06:19:01;;;;;;;0.37;0.37;;;;;;;;;;4953007;28;20200;-58
2023/11/13 06:21:28;;;;;;;1.20;0.50;;;7.80;99.90;;;;;;4953220;28;20207;-67
2023/11/13 06:23:55;;;;;;;0.33;0.33;;;;;;;;;;4955391;28;20273;-67
2023/11/13 06:26:24;;;;;;;4.00;0.30;;;7.80;99.90;;;;;;4955200;28;20235;-67
2023/11/13 06:28:51;;;;;;;0.40;0.40;;;7.80;99.90;;;;;;4954520;28;20611;-68
2023/11/13 06:31:21;;;;;;;1.03;0.30;;;7.80;99.90;;;;;;4955224;28;20203;-68
2023/11/13 06:33:48;;;;;;;1.53;0.30;;;7.80;99.90;;;;;;4952904;28;20643;-67
2023/11/13 06:36:15;;;;;;;0.10;0.10;;;7.80;99.90;;;;;;4953725;28;20227;-65
2023/11/13 06:38:42;;;;;;;0.93;0.40;;;7.80;99.90;;;;;;4955395;28;20286;-68
2023/11/13 06:41:11;;;;;;;0.67;0.60;;;8.00;99.90;;;;;;4954966;28;20683;-67
2023/11/13 06:43:39;;;;;;;2.23;0.80;;;7.80;99.90;;;;;;4955139;28;20211;-67
2023/11/13 06:46:06;;;;;;;0.40;0.40;;;7.70;99.90;;;;;;4954802;28;20278;-67
2023/11/13 06:48:34;;;;;;;1.03;0.60;;;7.80;99.90;;;;;;4953906;28;20239;-67
2023/11/13 06:51:01;;;;;;;1.83;0.67;;;7.80;99.90;;;;;;4949680;28;20209;-66
2023/11/13 06:53:28;;;;;;;0.90;0.67;;;7.90;99.90;;;;;;4954953;28;20208;-58
2023/11/13 06:55:55;;;;;;;1.23;0.70;;;7.80;99.90;;;;;;4954400;28;20265;-63
2023/11/13 06:58:23;;;;;;;1.43;0.90;;;7.80;99.90;;;;;;4954685;28;20199;-63
2023/11/13 07:00:52;;;;;;;4.73;3.20;;;7.70;99.90;;;;;;4954859;28;20230;-62
2023/11/13 07:03:20;;;;;;;2.10;1.00;;;7.70;99.90;;;;;;4953485;28;20628;-63
2023/11/13 07:05:47;;;;;;;0.87;0.40;;;7.70;99.90;;;;;;4946820;28;20223;-58
2023/11/13 07:08:14;;;;;;;0.33;0.30;;;7.60;99.90;;;;;;4952871;28;20203;-58
2023/11/13 07:10:42;;;;;;;0.67;0.40;;;7.60;99.90;;;;;;4954516;28;20207;-58
2023/11/13 07:13:11;;;;;;;1.23;0.40;;;7.60;99.90;;;;;;4954643;28;20203;-58
2023/11/13 07:15:38;;;;;;;0.90;0.40;;;7.60;99.90;;;;;;4957901;28;20252;-58
2023/11/13 07:18:07;;;;;;;2.23;0.50;;;7.50;99.90;;;;;;4957913;28;20289;-63
2023/11/13 07:20:35;;;;;;;0.63;0.30;;;7.50;99.90;;;;;;4954662;28;20237;-62
2023/11/13 07:23:02;;;;;;;0.40;0.40;;;7.50;99.90;;;;;;4950196;28;21802;-68
2023/11/13 07:25:29;;;;;;;0.60;0.40;;;7.60;99.90;;;;;;4950310;28;20231;-66
2023/11/13 07:27:57;;;;;;;1.00;0.43;;;7.50;99.90;;;;;;4951471;28;20270;-58
2023/11/13 07:30:24;;;;;;;0.67;0.40;;;7.70;99.90;;;;;;4952856;28;20299;-63
2023/11/13 07:32:51;;;;;;;1.60;0.50;;;7.60;99.90;;;;;;4954374;28;20214;-64
2023/11/13 07:35:19;;;;;;;0.77;0.20;;;7.70;99.90;;;;;;4954932;28;20227;-64
2023/11/13 07:37:46;;;;;;;2.00;0.50;;;7.70;99.90;;;;;;4953127;28;20223;-63
2023/11/13 07:40:14;;;;;;;0.40;0.27;;;7.70;99.90;;;;;;4951536;28;20668;-64
2023/11/13 07:42:41;;;;;;;0.40;0.27;;;7.70;99.90;;;;;;4952064;28;20195;-64
2023/11/13 07:45:10;;;;;;;0.40;0.40;;;7.70;99.90;;;;;;4951928;28;20223;-58
2023/11/13 07:47:39;;;;;;;4.37;0.73;;;7.80;99.90;;;;;;4953861;28;20227;-58
2023/11/13 07:50:11;;;;;;;0.80;0.40;;;;;;;;;;4954204;28;20879;-58
2023/11/13 07:52:41;;;;;;;1.90;0.40;;;7.70;99.90;;;;;;4947467;28;20213;-58
2023/11/13 07:55:10;;;;;;;1.63;0.30;;;7.70;99.90;;;;;;4953389;28;20366;-58
2023/11/13 07:57:38;;;;;;;0.73;0.50;;;7.80;99.90;;;;;;4953877;28;20226;-58
2023/11/13 08:00:10;;;;;;;0.50;0.50;;;;;;;;;;4952966;28;20202;-58
2023/11/13 08:02:40;;;;;;;0.33;0.33;;;7.70;99.90;;;;;;4953700;28;20244;-58
2023/11/13 08:05:10;;;;;;;0.30;0.30;;;7.80;99.90;;;;;;4952650;28;20232;-58
2023/11/13 08:07:39;;;;;;;1.60;0.60;;;7.90;99.90;;;;;;4952499;28;20206;-58
2023/11/13 08:10:12;;;;;;;0.30;0.30;;;7.90;99.90;;;;;;4953250;28;20671;-58
2023/11/13 08:12:42;;;;;;;0.57;0.40;;;7.30;99.90;;;;;;4946599;28;20238;-58
2023/11/13 08:15:12;;;;;;;0.50;0.50;;;8.00;99.90;;;;;;4953230;28;20231;-58
2023/11/13 08:17:39;;;;;;;0.37;0.30;;;8.00;99.90;;;;;;4945412;28;20227;-58
2023/11/13 08:20:09;;;;;;;0.50;0.40;;;8.90;99.90;;;;;;4951472;28;20229;-58
2023/11/13 08:22:36;;;;;;;0.40;0.40;;;8.10;99.90;;;;;;4945982;28;20257;-58
2023/11/13 08:25:05;;;;;;;0.30;0.30;;;7.80;99.90;;;;;;4953162;28;20234;-58
2023/11/13 08:27:33;;;;;;;0.60;0.30;;;9.10;99.90;;;;;;4953645;28;20290;-58
2023/11/13 08:30:00;;;;;;;0.50;0.30;;;8.00;99.90;;;;;;4953674;28;20215;-58
2023/11/13 08:32:27;;;;;;;1.63;0.40;;;9.30;99.90;;;;;;4947634;28;20266;-58
2023/11/13 08:34:55;;;;;;;0.20;0.20;;;7.60;99.90;;;;;;4951439;28;20223;-58
2023/11/13 08:37:21;;;;;;;0.73;0.50;;;7.70;99.90;;;;;;4951066;28;20234;-57
2023/11/13 08:39:49;;;;;;;0.70;0.40;;;7.90;99.90;;;;;;4952240;28;20230;-58
2023/11/13 08:42:17;;;;;;;0.73;0.50;;;9.30;99.90;;;;;;4954336;28;20214;-58
2023/11/13 08:44:44;;;;;;;0.67;0.40;;;;;;;;;;4964384;28;20217;-58
2023/11/13 08:47:11;;;;;;;1.40;0.30;;;8.50;99.90;;;;;;4972793;28;20211;-58
2023/11/13 08:49:41;;;;;;;1.77;0.50;;;8.50;99.90;;;;;;4951498;28;20198;-58
2023/11/13 08:52:09;;;;;;;0.97;0.33;;;8.50;99.90;;;;;;4952618;28;20207;-58
2023/11/13 08:54:36;;;;;;;0.67;0.67;;;8.60;99.90;;;;;;4953228;28;20228;-58
2023/11/13 08:57:06;;;;;;;0.67;0.20;;;8.70;99.90;;;;;;4953402;28;20254;-58
2023/11/13 08:59:35;;;;;;;2.73;0.20;;;8.70;99.90;;;;;;4952466;28;20250;-58
2023/11/13 09:02:05;;;;;;;3.63;0.40;;;8.80;99.90;;;;;;4960905;28;20224;-58
2023/11/13 09:04:34;;;;;;;1.90;0.40;;;8.80;99.90;;;;;;4966512;28;20258;-58
2023/11/13 09:07:07;;;;;;;1.13;0.20;;;8.90;99.90;;;;;;4967475;28;20551;-58
2023/11/13 09:09:34;;;;;;;0.90;0.83;;;8.90;99.90;;;;;;4948413;28;20214;-58
2023/11/13 09:12:04;;;;;;;0.33;0.30;;;9.00;99.90;;;;;;4950739;28;20211;-58
2023/11/13 09:14:30;;;;;;;0.70;0.30;;;9.00;99.90;;;;;;4949640;28;20231;-58
2023/11/13 09:16:58;;;;;;;0.80;0.80;;;9.10;99.90;;;;;;4951672;28;20219;-58
2023/11/13 09:19:26;;;;;;;0.30;0.30;;;9.20;99.90;;;;;;4952790;28;20572;-59
2023/11/13 09:21:53;;;;;;;1.37;0.67;;;9.20;99.90;;;;;;4952198;28;20691;-58
2023/11/13 09:24:20;;;;;;;0.40;0.40;;;9.20;99.90;;;;;;4956630;28;20231;-58
2023/11/13 09:26:48;;;;;;;0.53;0.20;;;9.20;99.90;;;;;;4963392;28;20215;-58
2023/11/13 09:29:15;;;;;;;0.20;0.10;;;9.30;99.90;;;;;;4956497;28;20235;-58
2023/11/13 09:31:42;;;;;;;0.33;0.30;;;9.30;99.90;;;;;;4951639;28;20207;-59
2023/11/13 09:34:15;;;;;;;0.50;0.50;;;9.40;99.90;;;;;;4956580;28;20286;-58
2023/11/13 09:36:44;;;;;;;1.23;1.13;;;9.40;99.90;;;;;;4945270;28;20232;-58
2023/11/13 09:39:11;;;;;;;0.80;0.80;;;9.40;99.90;;;;;;4952701;28;20199;-58
2023/11/13 09:41:45;;;;;;;1.90;1.70;;;9.40;99.90;;;;;;4956335;28;20668;-58
2023/11/13 09:44:12;;;;;;;2.63;1.07;;;9.40;99.90;;;;;;4956537;28;20265;-58
2023/11/13 09:46:42;;;;;;;1.13;0.60;;;9.40;99.90;;;;;;4955088;28;20200;-58
2023/11/13 09:49:12;;;;;;;0.50;0.40;;;9.40;99.90;;;;;;4955991;28;20211;-58
2023/11/13 09:51:41;;;;;;;0.30;0.30;;;9.40;99.90;;;;;;4948878;28;20259;-59
2023/11/13 09:54:09;;;;;;;0.30;0.30;;;9.40;99.90;;;;;;4955412;28;20211;-58
2023/11/13 09:56:38;;;;;;;0.70;0.50;;;9.40;99.90;;;;;;4955810;28;20251;-58
2023/11/13 09:59:06;;;;;;;0.67;0.33;;;9.50;99.90;;;;;;4956148;28;20219;-58
2023/11/13 10:01:35;;;;;;;0.83;0.50;;;9.50;99.90;;;;;;4956080;28;20204;-59
2023/11/13 10:04:04;;;;;;;1.43;0.20;;;9.60;99.90;;;;;;4956085;28;20204;-59
2023/11/13 10:06:39;;;;;;;0.43;0.20;;;9.60;99.90;;;;;;4954065;28;20337;-58
2023/11/13 10:09:07;;;;;;;0.20;0.20;;;9.60;99.90;;;;;;4956038;28;20251;-58
2023/11/13 10:11:35;;;;;;;0.63;0.20;;;9.60;99.90;;;;;;4947816;28;20232;-58
2023/11/13 10:14:12;;;;;;;1.40;0.50;;;9.80;99.90;;;;;;4955394;28;20205;-58
2023/11/13 10:16:39;;;;;;;2.50;0.97;;;9.80;99.90;;;;;;4952707;28;20298;-58
2023/11/13 10:19:15;;;;;;;0.20;0.20;;;9.80;99.90;;;;;;4955200;28;20260;-58
2023/11/13 10:21:44;;;;;;;0.97;0.30;;;9.80;99.90;;;;;;4948460;28;20832;-58
2023/11/13 10:24:16;;;;;;;0.53;0.30;;;9.80;99.90;;;;;;4955438;28;20232;-58
2023/11/13 10:26:43;;;;;;;0.60;0.30;;;9.90;99.90;;;;;;4953359;28;20210;-58
2023/11/13 10:29:21;;;;;;;0.87;0.30;;;9.90;99.90;;;;;;4955336;28;20215;-58
2023/11/13 10:31:48;;;;;;;0.90;0.23;;;10.00;99.90;;;;;;4955578;28;20242;-58
2023/11/13 10:34:15;;;;;;;1.13;0.30;;;10.00;99.90;;;;;;4954807;28;20258;-58
2023/11/13 10:36:44;;;;;;;0.20;0.20;;;10.10;99.90;;;;;;4954289;28;20252;-58
2023/11/13 10:39:15;;;;;;;0.50;0.30;;;10.10;99.90;;;;;;4955193;28;20235;-58
2023/11/13 10:41:51;;;;;;;0.20;0.20;;;10.10;99.90;;;;;;4954541;28;20238;-58
2023/11/13 10:44:27;;;;;;;1.00;0.30;;;10.20;99.90;;;;;;4952003;28;20222;-58
2023/11/13 10:46:54;;;;;;;1.80;0.30;;;10.20;99.90;;;;;;4954179;28;20583;-58
2023/11/13 10:49:21;;;;;;;0.20;0.20;;;10.20;99.90;;;;;;4955200;28;20207;-58
2023/11/13 10:51:53;;;;;;;0.93;0.20;;;10.30;99.90;;;;;;4955335;28;20231;-58
2023/11/13 10:54:23;;;;;;;0.30;0.30;;;10.40;99.90;;;;;;4954943;28;20222;-58
2023/11/13 10:56:51;;;;;;;1.17;0.20;;;10.40;99.90;;;;;;4953519;28;20259;-58
2023/11/13 10:59:18;;;;;;;0.60;0.40;;;10.50;99.90;;;;;;4953837;28;20212;-58
2023/11/13 11:01:51;;;;;;;0.40;0.20;;;10.50;99.90;;;;;;4955152;28;20285;-58
2023/11/13 11:04:21;;;;;;;0.60;0.30;;;10.40;99.90;;;;;;4955637;28;20226;-58
2023/11/13 11:06:52;;;;;;;0.20;0.20;;;10.50;99.90;;;;;;4954833;28;20231;-58
2023/11/13 11:09:20;;;;;;;0.30;0.30;;;10.50;99.90;;;;;;4954579;28;20207;-58
2023/11/13 11:11:48;;;;;;;0.37;0.37;;;10.50;99.90;;;;;;4955078;28;20207;-58
2023/11/13 11:14:21;;;;;;;0.63;0.30;;;10.40;99.90;;;;;;4951157;28;20314;-58
2023/11/13 11:16:54;;;;;;;0.50;0.33;;;10.50;99.90;;;;;;4954304;28;20203;-58
2023/11/13 11:19:29;;;;;;;0.67;0.30;;;10.50;99.90;;;;;;4954460;28;20207;-58
2023/11/13 11:22:05;;;;;;;0.20;0.20;;;10.50;99.90;;;;;;4954886;28;20199;-58
2023/11/13 11:25:04;;;;;;;0.77;0.20;;;10.60;99.90;;;;;;4954319;28;20232;-58
2023/11/13 11:27:36;;;;;;;0.50;0.40;;;10.70;99.90;;;;;;4954478;28;20211;-58
2023/11/13 11:30:33;;;;;;;1.70;0.20;;;10.80;99.90;;;;;;4953393;28;20229;-58
2023/11/13 11:33:01;;;;;;;0.87;0.40;;;10.90;99.90;;;;;;4952510;28;20236;-58
2023/11/13 11:35:30;;;;;;;1.00;0.37;;;10.90;99.90;;;;;;4953738;28;20232;-58
2023/11/13 11:38:22;;;;;;;2.23;0.40;;;11.00;99.90;;;;;;4954189;28;20269;-58
2023/11/13 11:40:49;;;;;;;0.90;0.13;;;11.10;99.90;;;;;;4954599;28;20213;-58
2023/11/13 11:43:21;;;;;;;0.10;0.10;;;11.10;99.90;;;;;;4954304;28;20246;-58
2023/11/13 11:45:51;;;;;;;0.47;0.30;;;11.10;99.90;;;;;;4953297;28;20220;-58
2023/11/13 11:48:19;;;;;;;1.80;0.50;;;11.00;99.90;;;;;;4950993;28;20779;-58
2023/11/13 11:50:47;;;;;;;0.27;0.27;;;11.00;99.90;;;;;;4946373;28;20281;-58
2023/11/13 11:53:16;;;;;;;0.20;0.20;;;11.10;99.90;;;;;;4962073;28;20773;-58
2023/11/13 11:55:45;;;;;;;0.20;0.20;;;11.10;99.90;;;;;;4959964;28;20230;-58
2023/11/13 11:58:14;;;;;;;0.10;0.10;;;11.20;99.90;;;;;;4960747;28;20228;-58
2023/11/13 12:00:41;;;;;;;0.10;0.10;;;11.20;99.90;;;;;;4950328;28;20207;-58
2023/11/13 12:03:08;;;;;;;0.40;0.10;;;11.30;99.90;;;;;;4957691;28;20228;-58
2023/11/13 12:05:35;;;;;;;1.00;0.40;;;11.40;99.90;;;;;;4950171;28;20253;-58
2023/11/13 12:08:06;;;;;;;1.23;0.30;;;11.40;99.90;;;;;;4954057;28;20209;-58
2023/11/13 12:10:34;;;;;;;0.10;0.10;;;11.50;99.90;;;;;;4960868;28;20222;-58
2023/11/13 12:13:06;;;;;;;0.43;0.30;;;11.40;99.90;;;;;;4951290;28;20688;-58
2023/11/13 12:15:33;;;;;;;0.50;0.50;;;11.40;99.90;;;;;;4959822;28;20358;-58
2023/11/13 12:18:00;;;;;;;1.23;0.40;;;11.30;99.90;;;;;;4959509;28;20255;-58
2023/11/13 12:20:28;;;;;;;1.67;0.40;;;11.30;99.90;;;;;;4995035;23;20448;-54
2023/11/13 12:22:56;;;;;;;0.33;0.30;;;11.40;99.90;;;;;;4971904;28;20209;-55
2023/11/13 12:25:24;;;;;;;0.70;0.40;;;11.40;99.90;;;;;;4973480;28;20306;-55
2023/11/13 12:27:54;;;;;;;0.27;0.27;;;11.50;99.90;;;;;;4969191;28;20632;-55
2023/11/13 12:30:24;;;;;;;0.93;0.93;;;11.40;99.90;;;;;;4963808;28;20279;-55
2023/11/13 12:32:52;;;;;;;0.73;0.70;;;11.30;99.90;;;;;;4951839;28;20200;-56
2023/11/13 12:35:20;;;;;;;1.10;0.50;;;11.40;99.90;;;;;;4952535;28;20212;-55
2023/11/13 12:37:47;;;;;;;1.60;0.30;;;11.40;99.90;;;;;;4947570;28;20349;-55
2023/11/13 12:40:16;;;;;;;0.30;0.30;;;11.40;99.90;;;;;;4948018;28;20691;-55
2023/11/13 12:42:44;;;;;;;0.10;0.10;;;11.40;99.90;;;;;;4949909;28;20201;-55
2023/11/13 12:45:12;;;;;;;0.30;0.30;;;11.30;99.90;;;;;;4952318;28;20298;-55
2023/11/13 12:47:44;;;;;;;0.40;0.40;;;11.40;99.90;;;;;;4943810;28;20719;-54
2023/11/13 12:50:13;;;;;;;0.20;0.20;;;11.40;99.90;;;;;;4952477;28;20244;-54
2023/11/13 12:52:42;;;;;;;0.83;0.50;;;11.40;99.90;;;;;;4944836;28;20686;-55
2023/11/13 12:55:13;;;;;;;0.53;0.27;;;11.50;99.90;;;;;;4951320;28;20212;-55
2023/11/13 12:57:43;;;;;;;0.60;0.30;;;11.50;99.90;;;;;;4946538;28;20331;-55
2023/11/13 13:00:15;;;;;;;0.30;0.30;;;11.50;99.90;;;;;;4961418;28;20707;-56
2023/11/13 13:02:46;;;;;;;1.43;0.40;;;11.50;99.90;;;;;;4948927;28;20197;-55
2023/11/13 13:05:14;;;;;;;3.30;0.80;;;11.50;99.90;;;;;;4955982;28;20211;-55
2023/11/13 13:07:42;;;;;;;0.47;0.40;;;11.50;99.90;;;;;;4951720;28;20232;-55
2023/11/13 13:10:11;;;;;;;0.83;0.83;;;11.50;99.90;;;;;;4951378;28;20655;-55
2023/11/13 13:12:39;;;;;;;0.90;0.90;;;11.50;99.90;;;;;;4955774;28;20739;-55
2023/11/13 13:15:09;;;;;;;1.60;1.23;;;11.40;99.90;;;;;;4948339;28;20208;-55
2023/11/13 13:17:39;;;;;;;2.40;1.20;;;11.40;99.90;;;;;;4953735;28;20210;-55
2023/11/13 13:20:18;;;;;;;1.67;0.80;;;11.40;99.90;;;;;;4955881;28;20267;-54
2023/11/13 13:22:46;;;;;;;1.33;0.60;;;11.30;99.90;;;;;;4956070;28;20212;-55